CDT,Max TemperatureF,Mean TemperatureF,Min TemperatureF,Max Dew PointF,MeanDew PointF,Min DewpointF,Max Humidity, Mean Humidity, Min Humidity, Max Sea Level PressureIn, Mean Sea Level PressureIn, Min Sea Level PressureIn, Max VisibilityMiles, Mean VisibilityMiles, Min VisibilityMiles, Max Wind SpeedMPH, Mean Wind SpeedMPH, Max Gust SpeedMPH,PrecipitationIn, CloudCover, Events, WindDirDegrees
2014-4-1,44,34,25,32,24,18,85,69,54,30.09,29.88,29.67,10,10,10,29,20,40,0.02,4,,262
2014-4-2,52,39,26,32,26,21,90,63,29,30.17,30.09,30.00,10,10,10,20,8,24,0.00,2,,53
2014-4-3,42,38,34,34,31,24,93,76,57,30.00,29.83,29.62,10,10,2,24,18,32,0.00,8,,71
2014-4-4,37,36,34,35,30,27,95,83,67,30.05,29.69,29.46,10,7,1,26,11,32,0.01,8,,302
2014-4-5,51,38,26,32,27,24,95,65,36,30.19,30.13,30.05,10,9,2,13,7,16,0.00,0,,222
2014-4-6,59,46,33,37,32,26,81,59,37,30.10,30.01,29.91,10,10,10,17,9,21,0.00,2,,166
2014-4-7,57,48,40,44,38,32,88,69,51,29.91,29.77,29.67,10,10,7,12,5,,0.00,4,,354
2014-4-8,59,46,35,39,32,26,89,61,31,29.98,29.83,29.72,10,10,10,15,8,23,0.00,1,,313
2014-4-9,64,48,32,33,30,27,87,52,26,30.02,29.91,29.74,10,10,10,25,7,30,0.00,0,,206
2014-4-10,63,53,43,37,29,14,67,41,16,29.99,29.78,29.62,10,10,10,22,11,28,0.00,0,,266
2014-4-11,71,53,36,32,29,26,73,40,20,30.04,29.98,29.93,10,10,10,25,6,46,0.00,1,,244
2014-4-12,79,62,46,54,43,31,86,60,42,29.99,29.77,29.60,10,10,10,25,12,31,0.01,2,,120
2014-4-13,57,50,42,54,49,41,96,94,87,29.76,29.64,29.47,10,6,0,32,13,44,2.43,7,,35
2014-4-14,39,35,28,40,29,22,98,84,72,30.04,29.86,29.48,10,9,0,28,18,34,0.11,7,,331
2014-4-15,37,30,23,22,18,14,82,61,43,30.16,30.11,30.04,10,10,10,13,5,20,0.00,2,,290
2014-4-16,54,41,29,31,26,20,73,55,39,30.16,30.07,29.95,10,10,10,31,14,37,0.00,1,,133
2014-4-17,53,44,34,37,33,29,86,68,52,30.30,30.14,29.96,10,10,10,21,15,31,0.00,4,,268
2014-4-18,57,43,29,35,30,27,92,65,33,30.38,30.32,30.28,10,10,10,14,5,,0.00,0,,32
2014-4-19,69,50,32,36,32,26,82,52,28,30.34,30.25,30.14,10,10,10,23,14,26,0.00,1,,126
2014-4-20,80,66,52,49,42,36,59,45,29,30.16,30.08,29.98,10,10,10,17,9,22,0.00,3,,167
2014-4-21,70,62,53,58,50,32,85,67,42,30.00,29.91,29.85,10,10,10,23,6,32,0.00,2,,289
2014-4-22,58,48,39,32,28,24,71,46,27,30.08,30.02,29.93,10,10,10,20,13,25,0.00,0,,334
2014-4-23,52,42,32,40,29,26,85,59,36,30.18,30.10,29.99,10,10,7,15,7,22,0.05,2,,106
2014-4-24,55,47,39,49,42,32,96,81,59,30.01,29.80,29.66,10,8,0,22,14,29,0.41,7,,109
2014-4-25,67,52,38,48,39,32,95,64,28,29.86,29.80,29.71,10,9,1,26,9,36,0.00,1,,278
2014-4-26,60,48,37,38,33,29,84,56,35,30.00,29.94,29.85,10,10,10,24,10,31,0.00,1,,49
2014-4-27,54,48,41,43,38,28,88,73,51,30.01,29.84,29.66,10,10,3,38,23,45,0.51,6,,83
2014-4-28,49,46,42,43,42,39,91,86,74,29.73,29.59,29.45,10,10,3,34,24,46,0.04,8,,78
2014-4-29,48,45,42,46,43,41,95,93,87,29.61,29.52,29.47,10,7,2,21,13,25,0.02,8,,27
2014-4-30,44,41,38,43,39,36,96,90,82,29.74,29.69,29.61,10,7,1,15,8,,0.00,8,,227